CPX772 Details

Departure: Tallinn Airport (EETN)
Arrival: Liège Airport (EBLG) at N/A
Route: TLL Q11 PIMEX P739 KOLJA M864 BUMIL OSB
Notes:


Current Weather Information
EETN 191620Z 24008KT 9999 SCT024 SCT036 19/14 Q1012 NOSIG
EBLG 191550Z 25014KT CAVOK 21/09 Q1018 NOSIG